createdAt,value
2023-02-04T00:00:37.375Z,1.20
2023-02-04T00:03:06.484Z,1.10
2023-02-04T00:05:34.708Z,1.73
2023-02-04T00:08:04.551Z,1.10
2023-02-04T00:10:33.081Z,1.37
2023-02-04T00:13:01.748Z,1.40
2023-02-04T00:15:31.525Z,1.10
2023-02-04T00:17:59.589Z,1.43
2023-02-04T00:20:27.864Z,1.50
2023-02-04T00:22:57.199Z,1.63
2023-02-04T00:25:25.443Z,1.70
2023-02-04T00:27:53.626Z,1.87
2023-02-04T00:30:22.090Z,2.67
2023-02-04T00:32:54.782Z,3.03
2023-02-04T00:35:23.160Z,2.70
2023-02-04T00:37:51.875Z,2.20
2023-02-04T00:40:20.270Z,2.57
2023-02-04T00:42:48.389Z,2.13
2023-02-04T00:45:16.546Z,1.37
2023-02-04T00:47:44.708Z,1.83
2023-02-04T00:50:14.214Z,2.13
2023-02-04T00:52:42.321Z,2.07
2023-02-04T00:55:12.270Z,1.20
2023-02-04T00:57:40.822Z,1.63
2023-02-04T01:00:10.223Z,1.53
2023-02-04T01:02:40.476Z,2.07
2023-02-04T01:05:09.311Z,1.77
2023-02-04T01:07:38.946Z,1.30
2023-02-04T01:10:07.544Z,1.40
2023-02-04T01:12:35.770Z,1.73
2023-02-04T01:15:04.207Z,1.43
2023-02-04T01:17:32.710Z,1.27
2023-02-04T01:20:00.877Z,1.43
2023-02-04T01:22:29.016Z,1.33
2023-02-04T01:24:58.482Z,2.63
2023-02-04T01:27:26.580Z,1.43
2023-02-04T01:29:54.717Z,1.10
2023-02-04T01:32:23.162Z,1.10
2023-02-04T01:34:51.294Z,1.60
2023-02-04T01:37:19.403Z,1.47
2023-02-04T01:39:47.557Z,1.47
2023-02-04T01:42:17.166Z,2.10
2023-02-04T01:44:45.440Z,1.10
2023-02-04T01:47:13.672Z,1.43
2023-02-04T01:49:42.116Z,1.50
2023-02-04T01:52:12.002Z,1.80
2023-02-04T01:54:40.217Z,1.03
2023-02-04T01:57:14.574Z,0.83
2023-02-04T01:59:44.892Z,1.30
2023-02-04T02:02:39.275Z,1.80
2023-02-04T02:05:08.215Z,1.53
2023-02-04T02:07:36.725Z,2.10
2023-02-04T02:10:06.524Z,1.40
2023-02-04T02:12:34.694Z,1.20
2023-02-04T02:15:04.596Z,1.53
2023-02-04T02:17:33.527Z,1.20
2023-02-04T02:20:01.841Z,1.10
2023-02-04T02:22:33.258Z,2.40
2023-02-04T02:25:02.853Z,1.37
2023-02-04T02:27:31.032Z,1.40
2023-02-04T02:29:59.169Z,1.43
2023-02-04T02:32:27.613Z,2.10
2023-02-04T02:34:55.679Z,1.70
2023-02-04T02:37:23.927Z,1.30
2023-02-04T02:39:52.205Z,1.53
2023-02-04T02:42:22.153Z,1.50
2023-02-04T02:44:51.684Z,1.70
2023-02-04T02:47:23.168Z,1.00
2023-02-04T02:49:53.496Z,0.90
2023-02-04T02:52:22.968Z,1.10
2023-02-04T02:54:52.070Z,1.30
2023-02-04T02:57:23.653Z,1.10
2023-02-04T02:59:51.803Z,1.67
2023-02-04T03:02:24.502Z,0.77
2023-02-04T03:04:55.917Z,1.30
2023-02-04T03:07:24.625Z,1.17
2023-02-04T03:09:53.689Z,1.50
2023-02-04T03:12:23.327Z,1.10
2023-02-04T03:14:51.558Z,0.93
2023-02-04T03:17:19.774Z,1.20
2023-02-04T03:19:47.980Z,1.00
2023-02-04T03:22:16.313Z,1.60
2023-02-04T03:24:44.512Z,1.00
2023-02-04T03:27:12.684Z,0.90
2023-02-04T03:29:45.344Z,1.17
2023-02-04T03:32:13.971Z,1.30
2023-02-04T03:34:42.120Z,1.40
2023-02-04T03:37:10.769Z,1.50
2023-02-04T03:39:38.990Z,1.53
2023-02-04T03:42:07.301Z,1.30
2023-02-04T03:44:35.386Z,1.43
2023-02-04T03:47:04.807Z,1.50
2023-02-04T03:49:33.324Z,0.93
2023-02-04T03:52:01.393Z,1.73
2023-02-04T03:54:29.580Z,1.63
2023-02-04T03:56:57.700Z,1.27
2023-02-04T03:59:25.818Z,1.20
2023-02-04T04:01:54.037Z,1.37
2023-02-04T04:04:23.626Z,1.10
2023-02-04T04:06:51.693Z,1.03
2023-02-04T04:09:19.836Z,1.60
2023-02-04T04:11:47.999Z,1.20
2023-02-04T04:14:16.188Z,1.30
2023-02-04T04:16:44.371Z,1.60
2023-02-04T04:19:12.471Z,1.33
2023-02-04T04:21:41.936Z,1.13
2023-02-04T04:24:10.011Z,1.33
2023-02-04T04:26:38.103Z,1.47
2023-02-04T04:29:06.241Z,1.53
2023-02-04T04:31:34.465Z,1.37
2023-02-04T04:34:02.889Z,1.57
2023-02-04T04:36:31.120Z,1.37
2023-02-04T04:39:00.829Z,1.37
2023-02-04T04:41:28.981Z,2.40
2023-02-04T04:43:57.063Z,1.67
2023-02-04T04:46:25.261Z,1.90
2023-02-04T04:48:53.413Z,1.33
2023-02-04T04:51:21.611Z,1.20
2023-02-04T04:53:49.654Z,2.17
2023-02-04T04:56:19.242Z,1.40
2023-02-04T04:58:47.415Z,2.57
2023-02-04T05:01:15.604Z,1.40
2023-02-04T05:03:43.847Z,1.80
2023-02-04T05:06:13.103Z,2.63
2023-02-04T05:08:41.222Z,2.10
2023-02-04T05:11:09.373Z,3.70
2023-02-04T05:13:38.842Z,1.70
2023-02-04T05:16:07.327Z,2.70
2023-02-04T05:18:35.560Z,2.03
2023-02-04T05:21:03.584Z,1.83
2023-02-04T05:23:31.742Z,3.07
2023-02-04T05:25:59.916Z,3.03
2023-02-04T05:28:28.273Z,2.23
2023-02-04T05:30:57.779Z,1.53
2023-02-04T05:33:26.305Z,1.93
2023-02-04T05:35:56.566Z,1.97
2023-02-04T05:38:24.682Z,2.33
2023-02-04T05:40:52.831Z,1.70
2023-02-04T05:43:20.900Z,2.47
2023-02-04T05:45:49.142Z,2.50
2023-02-04T05:48:18.658Z,1.63
2023-02-04T05:50:46.827Z,3.13
2023-02-04T05:53:14.985Z,2.23
2023-02-04T05:55:43.101Z,2.87
2023-02-04T05:58:11.380Z,2.30
2023-02-04T06:00:39.544Z,2.10
2023-02-04T06:03:07.688Z,2.30
2023-02-04T06:05:40.198Z,1.90
2023-02-04T06:08:08.323Z,2.40
2023-02-04T06:10:36.429Z,1.90
2023-02-04T06:13:04.585Z,2.33
2023-02-04T06:15:32.770Z,2.03
2023-02-04T06:18:00.902Z,2.37
2023-02-04T06:20:29.011Z,3.40
2023-02-04T06:22:58.544Z,3.07
2023-02-04T06:25:26.951Z,2.73
2023-02-04T06:27:55.142Z,1.93
2023-02-04T06:30:23.338Z,2.70
2023-02-04T06:32:51.465Z,2.20
2023-02-04T06:35:19.617Z,2.03
2023-02-04T06:37:47.784Z,3.77
2023-02-04T06:40:17.645Z,2.53
2023-02-04T06:42:45.781Z,2.70
2023-02-04T06:45:14.022Z,3.40
2023-02-04T06:47:42.206Z,2.50
2023-02-04T06:50:12.273Z,3.43
2023-02-04T06:52:40.400Z,3.37
2023-02-04T06:55:08.669Z,3.13
2023-02-04T06:57:38.194Z,2.90
2023-02-04T07:00:07.135Z,5.73
2023-02-04T07:02:35.398Z,2.53
2023-02-04T07:05:03.647Z,3.20
2023-02-04T07:07:31.818Z,2.00
2023-02-04T07:09:59.989Z,3.17
2023-02-04T07:12:28.141Z,2.67
2023-02-04T07:14:57.691Z,2.20
2023-02-04T07:17:25.853Z,4.13
2023-02-04T07:19:53.949Z,2.70
2023-02-04T07:22:22.137Z,3.20
2023-02-04T07:24:50.238Z,3.33
2023-02-04T07:27:18.340Z,3.23
2023-02-04T07:29:46.473Z,3.50
2023-02-04T07:32:16.309Z,3.27
2023-02-04T07:34:44.370Z,3.67
2023-02-04T07:37:12.493Z,3.10
2023-02-04T07:39:40.550Z,3.27
2023-02-04T07:42:09.416Z,3.47
2023-02-04T07:44:38.560Z,2.90
2023-02-04T07:47:06.807Z,2.90
2023-02-04T07:49:36.280Z,4.23
2023-02-04T07:52:04.472Z,3.17
2023-02-04T07:54:32.597Z,2.90
2023-02-04T07:57:00.750Z,2.87
2023-02-04T07:59:28.862Z,2.60
2023-02-04T08:01:57.022Z,3.87
2023-02-04T08:04:25.234Z,2.60
2023-02-04T08:06:54.780Z,4.83
2023-02-04T08:09:23.930Z,4.87
2023-02-04T08:11:52.102Z,5.00
2023-02-04T08:14:20.290Z,4.27
2023-02-04T08:16:48.557Z,4.27
2023-02-04T08:19:19.185Z,5.10
2023-02-04T08:21:47.393Z,6.07
2023-02-04T08:24:17.584Z,4.00
2023-02-04T08:26:45.984Z,3.90
2023-02-04T08:29:14.284Z,3.83
2023-02-04T08:31:42.497Z,5.03
2023-02-04T08:34:10.701Z,3.57
2023-02-04T08:36:38.808Z,3.80
2023-02-04T08:39:06.962Z,3.13
2023-02-04T08:41:36.472Z,3.20
2023-02-04T08:44:04.566Z,4.40
2023-02-04T08:46:32.789Z,4.00
2023-02-04T08:49:00.840Z,5.20
2023-02-04T08:51:29.857Z,5.53
2023-02-04T08:53:57.837Z,3.37
2023-02-04T08:56:26.038Z,2.63
2023-02-04T08:58:55.470Z,3.80
2023-02-04T09:01:23.530Z,3.63
2023-02-04T09:03:51.587Z,3.33
2023-02-04T09:06:19.634Z,2.70
2023-02-04T09:08:47.639Z,2.33
2023-02-04T09:11:15.673Z,1.93
2023-02-04T09:13:43.666Z,3.57
2023-02-04T09:16:13.173Z,2.83
2023-02-04T09:18:41.253Z,2.27
2023-02-04T09:21:09.230Z,2.73
2023-02-04T09:23:37.282Z,2.70
2023-02-04T09:26:06.391Z,2.20
2023-02-04T09:28:34.371Z,2.47
2023-02-04T09:31:04.454Z,2.13
2023-02-04T09:33:34.743Z,2.00
2023-02-04T09:36:03.130Z,2.03
2023-02-04T09:38:31.178Z,3.60
2023-02-04T09:41:03.208Z,2.93
2023-02-04T09:43:35.368Z,3.90
2023-02-04T09:46:04.505Z,2.77
2023-02-04T09:48:34.235Z,2.87
2023-02-04T09:51:06.209Z,1.77
2023-02-04T09:53:35.234Z,2.27
2023-02-04T09:56:03.360Z,1.57
2023-02-04T09:58:34.898Z,2.20
2023-02-04T10:01:12.141Z,3.27
2023-02-04T10:03:46.693Z,2.00
2023-02-04T10:06:16.442Z,2.50
2023-02-04T10:08:47.512Z,2.13
2023-02-04T10:11:17.167Z,2.73
2023-02-04T10:13:50.153Z,2.67
2023-02-04T10:16:21.061Z,2.17
2023-02-04T10:18:51.119Z,1.87
2023-02-04T10:21:21.991Z,1.90
2023-02-04T10:23:53.363Z,2.47
2023-02-04T10:26:22.857Z,1.70
2023-02-04T10:28:50.961Z,1.30
2023-02-04T10:31:31.069Z,2.20
2023-02-04T10:34:11.674Z,2.70
2023-02-04T10:36:40.550Z,2.30
2023-02-04T10:39:13.328Z,1.80
2023-02-04T10:41:49.439Z,2.30
2023-02-04T10:44:20.138Z,2.27
2023-02-04T10:46:48.402Z,2.00
2023-02-04T10:49:25.805Z,2.50
2023-02-04T10:51:54.423Z,1.63
2023-02-04T10:54:30.946Z,1.97
2023-02-04T10:57:00.819Z,1.60
2023-02-04T10:59:29.390Z,2.00
2023-02-04T11:01:58.877Z,1.43
2023-02-04T11:04:29.405Z,1.30
2023-02-04T11:06:57.378Z,1.77
2023-02-04T11:09:25.400Z,2.53
2023-02-04T11:11:53.427Z,2.90
2023-02-04T11:14:28.180Z,2.00
2023-02-04T11:17:00.844Z,1.60
2023-02-04T11:19:36.739Z,1.10
2023-02-04T11:22:20.805Z,1.47
2023-02-04T11:24:48.850Z,2.07
2023-02-04T11:27:23.423Z,1.10
2023-02-04T11:29:52.184Z,1.20
2023-02-04T11:32:36.184Z,1.40
2023-02-04T11:35:26.248Z,2.37
2023-02-04T11:37:55.891Z,1.63
2023-02-04T11:40:30.387Z,2.10
2023-02-04T11:43:04.393Z,3.43
2023-02-04T11:45:35.168Z,1.80
2023-02-04T11:48:05.015Z,3.10
2023-02-04T11:50:38.495Z,1.93
2023-02-04T11:53:06.846Z,1.63
2023-02-04T11:55:37.793Z,4.20
2023-02-04T11:58:07.349Z,1.90
2023-02-04T12:00:35.350Z,2.00
2023-02-04T12:03:07.861Z,1.50
2023-02-04T12:05:43.350Z,2.00
2023-02-04T12:08:25.601Z,2.40
2023-02-04T12:11:02.784Z,2.80
2023-02-04T12:13:31.635Z,1.83
2023-02-04T12:16:01.510Z,1.93
2023-02-04T12:18:29.954Z,2.10
2023-02-04T12:21:00.136Z,2.10
2023-02-04T12:23:30.481Z,1.20
2023-02-04T12:25:58.891Z,1.57
2023-02-04T12:28:27.919Z,1.53
2023-02-04T12:30:57.467Z,1.23
2023-02-04T12:33:25.600Z,2.50
2023-02-04T12:35:53.892Z,1.83
2023-02-04T12:38:23.301Z,2.10
2023-02-04T12:40:51.360Z,1.67
2023-02-04T12:43:19.384Z,1.80
2023-02-04T12:45:49.793Z,1.63
2023-02-04T12:48:18.108Z,2.80
2023-02-04T12:50:46.194Z,2.83
2023-02-04T12:53:14.331Z,2.67
2023-02-04T12:55:43.707Z,1.77
2023-02-04T12:58:11.802Z,1.80
2023-02-04T13:00:40.049Z,2.83
2023-02-04T13:03:08.092Z,2.20
2023-02-04T13:05:36.145Z,2.07
2023-02-04T13:08:04.202Z,1.40
2023-02-04T13:10:32.199Z,1.30
2023-02-04T13:13:04.055Z,1.40
2023-02-04T13:15:32.741Z,2.37
2023-02-04T13:18:00.957Z,1.80
2023-02-04T13:20:28.995Z,2.47
2023-02-04T13:22:57.024Z,1.30
2023-02-04T13:25:25.042Z,2.40
2023-02-04T13:27:53.224Z,2.07
2023-02-04T13:30:22.838Z,2.10
2023-02-04T13:32:50.855Z,1.37
2023-02-04T13:35:19.513Z,1.40
2023-02-04T13:37:47.623Z,1.93
2023-02-04T13:40:15.760Z,1.97
2023-02-04T13:42:44.168Z,1.77
2023-02-04T13:45:13.162Z,1.40
2023-02-04T13:47:42.541Z,1.70
2023-02-04T13:50:11.001Z,1.70
2023-02-04T13:52:39.034Z,1.83
2023-02-04T13:55:07.513Z,1.77
2023-02-04T13:57:37.362Z,1.73
2023-02-04T14:00:06.820Z,1.03
2023-02-04T14:02:35.121Z,1.20
2023-02-04T14:05:04.565Z,1.50
2023-02-04T14:07:33.543Z,1.97
2023-02-04T14:10:01.601Z,2.53
2023-02-04T14:12:29.921Z,1.80
2023-02-04T14:14:57.935Z,1.60
2023-02-04T14:17:26.031Z,2.40
2023-02-04T14:19:54.070Z,2.30
2023-02-04T14:22:23.462Z,2.30
2023-02-04T14:24:51.498Z,2.60
2023-02-04T14:27:19.542Z,1.73
2023-02-04T14:29:47.951Z,1.57
2023-02-04T14:32:16.263Z,1.90
2023-02-04T14:34:44.263Z,1.50
2023-02-04T14:37:12.271Z,1.03
2023-02-04T14:39:41.632Z,0.90
2023-02-04T14:42:09.638Z,1.53
2023-02-04T14:44:40.259Z,1.10
2023-02-04T14:47:08.565Z,1.97
2023-02-04T14:49:38.076Z,1.83
2023-02-04T14:52:06.589Z,1.90
2023-02-04T14:54:34.899Z,1.63
2023-02-04T14:57:04.573Z,1.30
2023-02-04T14:59:32.881Z,1.50
2023-02-04T15:02:01.300Z,2.07
2023-02-04T15:04:29.646Z,2.43
2023-02-04T15:06:58.027Z,1.80
2023-02-04T15:09:26.612Z,1.53
2023-02-04T15:11:54.950Z,2.13
2023-02-04T15:14:24.651Z,1.93
2023-02-04T15:16:53.457Z,1.87
2023-02-04T15:19:23.610Z,1.80
2023-02-04T15:21:51.968Z,1.77
2023-02-04T15:24:20.342Z,3.13
2023-02-04T15:26:48.615Z,2.90
2023-02-04T15:29:16.958Z,1.90
2023-02-04T15:31:46.810Z,2.10
2023-02-04T15:34:15.425Z,2.10
2023-02-04T15:36:43.776Z,2.30
2023-02-04T15:39:12.110Z,1.50
2023-02-04T15:41:40.403Z,2.27
2023-02-04T15:44:08.747Z,2.03
2023-02-04T15:46:37.103Z,2.83
2023-02-04T15:49:06.809Z,2.20
2023-02-04T15:51:35.167Z,2.30
2023-02-04T15:54:03.546Z,2.13
2023-02-04T15:56:31.814Z,3.23
2023-02-04T15:59:02.226Z,2.97
2023-02-04T16:01:30.884Z,2.20
2023-02-04T16:04:00.312Z,2.80
2023-02-04T16:06:30.016Z,1.45
2023-02-04T16:08:58.384Z,2.67
2023-02-04T16:11:26.724Z,2.57
2023-02-04T16:13:55.014Z,1.83
2023-02-04T16:16:23.453Z,2.80
2023-02-04T16:18:51.842Z,2.63
2023-02-04T16:21:20.158Z,2.70
2023-02-04T16:23:49.993Z,3.63
2023-02-04T16:26:18.365Z,3.50
2023-02-04T16:28:47.914Z,2.30
2023-02-04T16:31:16.478Z,3.50
2023-02-04T16:33:44.966Z,3.33
2023-02-04T16:36:13.743Z,4.50
2023-02-04T16:38:43.585Z,3.40
2023-02-04T16:41:14.356Z,4.40
2023-02-04T16:43:42.849Z,3.37
2023-02-04T16:46:12.348Z,3.90
2023-02-04T16:48:40.821Z,3.63
2023-02-04T16:51:11.480Z,3.07
2023-02-04T16:53:40.155Z,3.40
2023-02-04T16:56:08.947Z,3.53
2023-02-04T16:58:40.062Z,4.20
2023-02-04T17:01:09.738Z,2.47
2023-02-04T17:03:38.140Z,4.03
2023-02-04T17:06:06.655Z,6.07
2023-02-04T17:08:35.041Z,15.10
2023-02-04T17:11:21.052Z,17.90
2023-02-04T17:13:50.834Z,12.13
2023-02-04T17:16:19.722Z,7.80
2023-02-04T17:18:48.293Z,3.67
2023-02-04T17:21:16.736Z,2.83
2023-02-04T17:23:45.266Z,1.73
2023-02-04T17:26:13.732Z,2.70
2023-02-04T17:28:42.258Z,2.53
2023-02-04T17:31:12.402Z,3.03
2023-02-04T17:33:41.110Z,2.53
2023-02-04T17:36:10.290Z,2.10
2023-02-04T17:38:38.895Z,1.60
2023-02-04T17:41:07.409Z,3.67
2023-02-04T17:43:37.412Z,1.80
2023-02-04T17:46:06.040Z,2.70
2023-02-04T17:48:35.925Z,2.17
2023-02-04T17:51:04.453Z,2.10
2023-02-04T17:53:34.511Z,2.10
2023-02-04T17:56:06.391Z,2.80
2023-02-04T17:58:36.332Z,1.70
2023-02-04T18:01:07.584Z,1.97
2023-02-04T18:03:37.449Z,2.27
2023-02-04T18:06:16.507Z,2.83
2023-02-04T18:08:44.915Z,2.37
2023-02-04T18:11:16.648Z,3.60
2023-02-04T18:13:45.042Z,3.17
2023-02-04T18:16:20.703Z,2.70
2023-02-04T18:18:50.578Z,2.80
2023-02-04T18:21:21.010Z,2.60
2023-02-04T18:23:49.887Z,3.97
2023-02-04T18:26:19.668Z,2.47
2023-02-04T18:28:48.943Z,4.13
2023-02-04T18:31:26.839Z,4.30
2023-02-04T18:33:56.946Z,2.00
2023-02-04T18:36:27.970Z,3.57
2023-02-04T18:38:56.844Z,4.10
2023-02-04T18:41:31.416Z,2.43
2023-02-04T18:44:02.803Z,2.73
2023-02-04T18:46:33.525Z,4.17
2023-02-04T18:49:04.902Z,2.93
2023-02-04T18:51:35.425Z,4.20
2023-02-04T18:54:19.924Z,2.40
2023-02-04T18:56:48.404Z,2.07
2023-02-04T18:59:18.099Z,2.60
2023-02-04T19:01:47.687Z,2.53
2023-02-04T19:04:21.903Z,2.67
2023-02-04T19:06:52.347Z,2.83
2023-02-04T19:09:25.228Z,1.93
2023-02-04T19:11:54.293Z,2.17
2023-02-04T19:14:31.127Z,2.77
2023-02-04T19:17:09.655Z,2.23
2023-02-04T19:19:40.445Z,2.23
2023-02-04T19:22:19.706Z,2.17
2023-02-04T19:24:48.902Z,2.93
2023-02-04T19:27:38.540Z,3.10
2023-02-04T19:30:36.461Z,3.00
2023-02-04T19:33:12.065Z,2.30
2023-02-04T19:35:43.277Z,1.63
2023-02-04T19:38:28.321Z,3.70
2023-02-04T19:40:56.680Z,2.43
2023-02-04T19:43:28.873Z,4.07
2023-02-04T19:45:57.341Z,3.17
2023-02-04T19:48:29.274Z,5.33
2023-02-04T19:50:59.130Z,2.47
2023-02-04T19:53:29.532Z,2.47
2023-02-04T19:55:58.040Z,2.70
2023-02-04T19:58:27.008Z,2.40
2023-02-04T20:00:59.447Z,2.90
2023-02-04T20:03:34.883Z,2.87
2023-02-04T20:06:12.461Z,2.40
2023-02-04T20:08:44.980Z,1.83
2023-02-04T20:11:46.462Z,1.83
2023-02-04T20:14:33.736Z,2.80
2023-02-04T20:17:03.681Z,1.87
2023-02-04T20:19:37.872Z,3.70
2023-02-04T20:22:39.461Z,1.93
2023-02-04T20:25:26.069Z,2.33
2023-02-04T20:27:59.323Z,3.40
2023-02-04T20:30:29.543Z,1.83
2023-02-04T20:32:58.657Z,2.37
2023-02-04T20:35:51.269Z,2.47
2023-02-04T20:38:20.459Z,1.97
2023-02-04T20:40:49.105Z,2.40
2023-02-04T20:43:20.170Z,1.63
2023-02-04T20:45:49.763Z,3.33
2023-02-04T20:48:36.102Z,2.20
2023-02-04T20:51:05.475Z,3.77
2023-02-04T20:53:40.131Z,2.77
2023-02-04T20:56:16.747Z,2.30
2023-02-04T20:58:47.418Z,2.07
2023-02-04T21:01:21.053Z,2.10
2023-02-04T21:03:50.969Z,2.03
2023-02-04T21:06:23.061Z,2.60
2023-02-04T21:08:51.930Z,4.17
2023-02-04T21:11:21.794Z,3.30
2023-02-04T21:13:52.307Z,2.20
2023-02-04T21:16:20.845Z,2.40
2023-02-04T21:18:50.637Z,2.93
2023-02-04T21:21:20.386Z,2.30
2023-02-04T21:23:48.925Z,2.63
2023-02-04T21:26:17.348Z,2.63
2023-02-04T21:28:46.063Z,1.90
2023-02-04T21:31:16.027Z,2.47
2023-02-04T21:33:44.483Z,2.63
2023-02-04T21:36:13.113Z,2.37
2023-02-04T21:38:41.594Z,2.50
2023-02-04T21:41:10.033Z,2.63
2023-02-04T21:43:38.479Z,3.03
2023-02-04T21:46:07.121Z,2.67
2023-02-04T21:48:36.968Z,2.27
2023-02-04T21:51:05.596Z,2.80
2023-02-04T21:53:34.029Z,2.80
2023-02-04T21:56:02.487Z,2.30
2023-02-04T21:58:30.905Z,2.70
2023-02-04T22:00:59.361Z,5.10
2023-02-04T22:03:27.944Z,3.43
2023-02-04T22:05:57.897Z,2.40
2023-02-04T22:08:26.295Z,2.67
2023-02-04T22:10:54.773Z,2.87
2023-02-04T22:13:40.898Z,3.67
2023-02-04T22:16:09.627Z,2.77
2023-02-04T22:18:38.112Z,2.53
2023-02-04T22:21:07.953Z,2.40
2023-02-04T22:23:36.414Z,2.93
2023-02-04T22:26:04.896Z,2.90
2023-02-04T22:28:33.362Z,3.90
2023-02-04T22:31:01.869Z,3.70
2023-02-04T22:33:30.318Z,5.67
2023-02-04T22:35:58.809Z,4.20
2023-02-04T22:38:28.666Z,3.47
2023-02-04T22:40:57.357Z,4.87
2023-02-04T22:43:25.880Z,3.70
2023-02-04T22:45:54.316Z,4.70
2023-02-04T22:48:22.763Z,3.40
2023-02-04T22:50:51.167Z,2.70
2023-02-04T22:53:19.707Z,4.43
2023-02-04T22:55:49.424Z,4.80
2023-02-04T22:58:17.737Z,4.57
2023-02-04T23:00:46.086Z,3.07
2023-02-04T23:03:14.479Z,4.80
2023-02-04T23:05:42.787Z,4.57
2023-02-04T23:08:11.133Z,3.20
2023-02-04T23:10:39.514Z,3.27
2023-02-04T23:13:09.873Z,2.57
2023-02-04T23:15:38.251Z,2.37
2023-02-04T23:18:06.801Z,2.90
2023-02-04T23:20:35.247Z,1.97
2023-02-04T23:23:03.842Z,2.80
2023-02-04T23:25:32.501Z,3.00
2023-02-04T23:28:01.204Z,4.93
2023-02-04T23:30:31.072Z,4.97
2023-02-04T23:32:59.493Z,6.30
2023-02-04T23:35:28.065Z,5.07
2023-02-04T23:37:56.519Z,5.60
2023-02-04T23:40:25.088Z,4.67
2023-02-04T23:42:53.557Z,6.63
2023-02-04T23:45:22.133Z,7.00
2023-02-04T23:47:51.972Z,4.40
2023-02-04T23:50:20.616Z,3.73
2023-02-04T23:52:49.029Z,3.33
2023-02-04T23:55:18.638Z,3.77
2023-02-04T23:57:49.568Z,5.17
